sensor_id;sensor_type;location;lat;lon;timestamp;pressure;altitude;pressure_sealevel;temperature;humidity
79347;BME280;68815;48.810;44.482;2023-08-17T00:01:25;100633;;;21.8;52.4
79347;BME280;68815;48.810;44.482;2023-08-17T00:04:26;100628;;;21.9;51.8
79347;BME280;68815;48.810;44.482;2023-08-17T00:07:28;100628;;;21.9;51.7
79347;BME280;68815;48.810;44.482;2023-08-17T00:10:29;100629;;;21.7;52.5
79347;BME280;68815;48.810;44.482;2023-08-17T00:13:31;100632;;;21.5;52.8
79347;BME280;68815;48.810;44.482;2023-08-17T00:16:32;100638;;;21.6;52.6
79347;BME280;68815;48.810;44.482;2023-08-17T00:19:34;100639;;;21.5;53.1
79347;BME280;68815;48.810;44.482;2023-08-17T00:22:35;100636;;;21.3;53.5
79347;BME280;68815;48.810;44.482;2023-08-17T02:06:04;100640;;;21.1;54.6
79347;BME280;68815;48.810;44.482;2023-08-17T02:09:05;100646;;;21;55.9
79347;BME280;68815;48.810;44.482;2023-08-17T02:12:07;100653;;;21;55.2
79347;BME280;68815;48.810;44.482;2023-08-17T02:15:09;100656;;;21.2;55.2
79347;BME280;68815;48.810;44.482;2023-08-17T02:18:10;100656;;;21.2;54.7
79347;BME280;68815;48.810;44.482;2023-08-17T02:21:12;100654;;;21.1;55.2
79347;BME280;68815;48.810;44.482;2023-08-17T02:24:13;100648;;;21.4;55
79347;BME280;68815;48.810;44.482;2023-08-17T02:27:15;100647;;;21.5;54.5
79347;BME280;68815;48.810;44.482;2023-08-17T02:30:16;100652;;;21.6;54.5
79347;BME280;68815;48.810;44.482;2023-08-17T02:33:18;100650;;;21.3;54.8
79347;BME280;68815;48.810;44.482;2023-08-17T02:36:20;100653;;;21.5;54.8
79347;BME280;68815;48.810;44.482;2023-08-17T02:39:21;100655;;;21.8;54.1
79347;BME280;68815;48.810;44.482;2023-08-17T02:42:22;100645;;;21.7;54.2
79347;BME280;68815;48.810;44.482;2023-08-17T02:45:24;100645;;;21.9;53.9
79347;BME280;68815;48.810;44.482;2023-08-17T02:48:26;100650;;;22.1;53.4
79347;BME280;68815;48.810;44.482;2023-08-17T02:51:27;100654;;;22.2;53.4
79347;BME280;68815;48.810;44.482;2023-08-17T02:54:34;100659;;;22.1;53.5
79347;BME280;68815;48.810;44.482;2023-08-17T02:57:36;100657;;;22.4;52.9
79347;BME280;68815;48.810;44.482;2023-08-17T03:00:37;100660;;;22.4;52.9
79347;BME280;68815;48.810;44.482;2023-08-17T03:03:38;100658;;;22.4;52.9
79347;BME280;68815;48.810;44.482;2023-08-17T03:06:40;100660;;;22.4;53
79347;BME280;68815;48.810;44.482;2023-08-17T03:09:41;100660;;;22.5;52.8
79347;BME280;68815;48.810;44.482;2023-08-17T03:12:43;100663;;;22.5;52.9
79347;BME280;68815;48.810;44.482;2023-08-17T03:15:44;100659;;;22.8;52.1
79347;BME280;68815;48.810;44.482;2023-08-17T03:18:46;100658;;;23;51.7
79347;BME280;68815;48.810;44.482;2023-08-17T03:21:47;100657;;;23;51.5
79347;BME280;68815;48.810;44.482;2023-08-17T03:24:48;100651;;;23.2;51.5
79347;BME280;68815;48.810;44.482;2023-08-17T03:27:50;100648;;;23.2;51.2
79347;BME280;68815;48.810;44.482;2023-08-17T03:30:54;100652;;;23.1;51.6
79347;BME280;68815;48.810;44.482;2023-08-17T03:33:56;100654;;;23;52
79347;BME280;68815;48.810;44.482;2023-08-17T03:36:57;100649;;;23.3;51.4
79347;BME280;68815;48.810;44.482;2023-08-17T03:39:59;100652;;;23.6;50.9
79347;BME280;68815;48.810;44.482;2023-08-17T03:43:00;100649;;;23.4;51.4
79347;BME280;68815;48.810;44.482;2023-08-17T03:46:04;100655;;;23.6;51.3
79347;BME280;68815;48.810;44.482;2023-08-17T03:49:05;100651;;;23.7;51.9
79347;BME280;68815;48.810;44.482;2023-08-17T03:52:07;100650;;;24;50.5
79347;BME280;68815;48.810;44.482;2023-08-17T03:55:09;100656;;;24.2;50.1
79347;BME280;68815;48.810;44.482;2023-08-17T03:58:10;100660;;;24.2;49.2
79347;BME280;68815;48.810;44.482;2023-08-17T04:01:12;100652;;;23.5;51.1
79347;BME280;68815;48.810;44.482;2023-08-17T04:04:13;100656;;;23.5;51.4
79347;BME280;68815;48.810;44.482;2023-08-17T04:07:20;100665;;;23.5;51.6
79347;BME280;68815;48.810;44.482;2023-08-17T04:10:22;100659;;;24.1;50.8
79347;BME280;68815;48.810;44.482;2023-08-17T04:13:24;100657;;;24.4;49
79347;BME280;68815;48.810;44.482;2023-08-17T04:16:25;100655;;;24.5;49
79347;BME280;68815;48.810;44.482;2023-08-17T04:19:27;100652;;;24.8;48.3
79347;BME280;68815;48.810;44.482;2023-08-17T04:22:28;100654;;;24.9;47.5
79347;BME280;68815;48.810;44.482;2023-08-17T04:25:29;100654;;;25.1;47.3
79347;BME280;68815;48.810;44.482;2023-08-17T04:28:36;100637;;;25.7;46.2
79347;BME280;68815;48.810;44.482;2023-08-17T04:31:38;100647;;;25.9;45.7
79347;BME280;68815;48.810;44.482;2023-08-17T04:34:41;100646;;;26.6;45.1
79347;BME280;68815;48.810;44.482;2023-08-17T04:37:42;100652;;;26.4;44.6
79347;BME280;68815;48.810;44.482;2023-08-17T04:40:44;100648;;;26.7;44.6
79347;BME280;68815;48.810;44.482;2023-08-17T04:43:46;100645;;;27.2;43.4
79347;BME280;68815;48.810;44.482;2023-08-17T04:46:47;100647;;;27.5;42.3
79347;BME280;68815;48.810;44.482;2023-08-17T04:49:48;100637;;;27.8;41.8
79347;BME280;68815;48.810;44.482;2023-08-17T04:52:50;100636;;;28;41.6
79347;BME280;68815;48.810;44.482;2023-08-17T04:55:51;100631;;;28;41.8
79347;BME280;68815;48.810;44.482;2023-08-17T04:58:52;100635;;;28.4;41.5
79347;BME280;68815;48.810;44.482;2023-08-17T05:01:54;100633;;;28.9;40.2
79347;BME280;68815;48.810;44.482;2023-08-17T05:04:55;100630;;;29.2;39.8
79347;BME280;68815;48.810;44.482;2023-08-17T05:07:57;100634;;;29.3;39.6
79347;BME280;68815;48.810;44.482;2023-08-17T05:10:58;100641;;;29.5;39.1
79347;BME280;68815;48.810;44.482;2023-08-17T05:13:59;100640;;;29.1;38.8
79347;BME280;68815;48.810;44.482;2023-08-17T05:17:01;100639;;;29.4;38.6
79347;BME280;68815;48.810;44.482;2023-08-17T05:20:03;100643;;;30.1;37.8
79347;BME280;68815;48.810;44.482;2023-08-17T05:23:05;100644;;;30.1;37
79347;BME280;68815;48.810;44.482;2023-08-17T05:26:06;100646;;;29.8;37.1
79347;BME280;68815;48.810;44.482;2023-08-17T05:29:08;100643;;;30.3;36.9
79347;BME280;68815;48.810;44.482;2023-08-17T05:32:10;100647;;;30.8;35.4
79347;BME280;68815;48.810;44.482;2023-08-17T05:35:11;100654;;;31.2;34.3
79347;BME280;68815;48.810;44.482;2023-08-17T05:38:13;100652;;;31.3;34.5
79347;BME280;68815;48.810;44.482;2023-08-17T05:41:14;100656;;;31.6;33.7
79347;BME280;68815;48.810;44.482;2023-08-17T05:44:17;100643;;;32.2;33.5
79347;BME280;68815;48.810;44.482;2023-08-17T05:47:19;100645;;;33;31.6
79347;BME280;68815;48.810;44.482;2023-08-17T05:50:20;100645;;;33.2;31.4
79347;BME280;68815;48.810;44.482;2023-08-17T05:53:22;100643;;;32.8;31.7
79347;BME280;68815;48.810;44.482;2023-08-17T05:56:23;100645;;;32.7;32.4
79347;BME280;68815;48.810;44.482;2023-08-17T05:59:25;100649;;;33.4;32.1
79347;BME280;68815;48.810;44.482;2023-08-17T06:05:57;100652;;;33.2;30.3
79347;BME280;68815;48.810;44.482;2023-08-17T06:08:59;100643;;;33;31.4
79347;BME280;68815;48.810;44.482;2023-08-17T06:12:00;100641;;;32.3;32.5
79347;BME280;68815;48.810;44.482;2023-08-17T06:15:02;100652;;;31.6;33.6
79347;BME280;68815;48.810;44.482;2023-08-17T06:18:05;100654;;;31.4;33
79347;BME280;68815;48.810;44.482;2023-08-17T06:21:06;100641;;;31;33.4
79347;BME280;68815;48.810;44.482;2023-08-17T06:24:08;100642;;;30.6;33.8
79347;BME280;68815;48.810;44.482;2023-08-17T06:27:14;100640;;;30.2;35.9
79347;BME280;68815;48.810;44.482;2023-08-17T06:30:16;100640;;;30.2;33.9
79347;BME280;68815;48.810;44.482;2023-08-17T06:33:18;100636;;;30.3;34.1
79347;BME280;68815;48.810;44.482;2023-08-17T06:36:19;100635;;;30.3;34.9
79347;BME280;68815;48.810;44.482;2023-08-17T06:39:20;100634;;;30.2;34.7
79347;BME280;68815;48.810;44.482;2023-08-17T06:42:22;100631;;;30;34.2
79347;BME280;68815;48.810;44.482;2023-08-17T06:45:23;100639;;;29.8;34.5
79347;BME280;68815;48.810;44.482;2023-08-17T06:48:25;100642;;;29.8;34.6
79347;BME280;68815;48.810;44.482;2023-08-17T06:51:37;100633;;;29.9;35.4
79347;BME280;68815;48.810;44.482;2023-08-17T06:54:39;100630;;;29.9;35
79347;BME280;68815;48.810;44.482;2023-08-17T06:57:41;100631;;;30.1;34.3
79347;BME280;68815;48.810;44.482;2023-08-17T07:00:43;100622;;;29.9;34.9
79347;BME280;68815;48.810;44.482;2023-08-17T07:03:44;100629;;;29.5;35.7
79347;BME280;68815;48.810;44.482;2023-08-17T07:06:46;100624;;;29.9;35.4
79347;BME280;68815;48.810;44.482;2023-08-17T07:09:47;100616;;;29.8;34.6
79347;BME280;68815;48.810;44.482;2023-08-17T07:12:49;100613;;;29.6;35.1
79347;BME280;68815;48.810;44.482;2023-08-17T07:15:50;100614;;;29.7;35.5
79347;BME280;68815;48.810;44.482;2023-08-17T07:18:52;100608;;;29.9;35.3
79347;BME280;68815;48.810;44.482;2023-08-17T07:21:53;100613;;;29.9;34.6
79347;BME280;68815;48.810;44.482;2023-08-17T07:24:55;100610;;;30;35.3
79347;BME280;68815;48.810;44.482;2023-08-17T07:27:56;100605;;;30.2;35.3
79347;BME280;68815;48.810;44.482;2023-08-17T07:30:58;100613;;;30.1;33.8
79347;BME280;68815;48.810;44.482;2023-08-17T07:34:00;100609;;;30;34.3
79347;BME280;68815;48.810;44.482;2023-08-17T07:37:07;100599;;;30.1;35
79347;BME280;68815;48.810;44.482;2023-08-17T07:40:08;100601;;;30.1;35
79347;BME280;68815;48.810;44.482;2023-08-17T07:43:10;100599;;;29.9;34.7
79347;BME280;68815;48.810;44.482;2023-08-17T07:46:11;100589;;;29.9;35.8
79347;BME280;68815;48.810;44.482;2023-08-17T07:49:13;100588;;;30.1;34.9
79347;BME280;68815;48.810;44.482;2023-08-17T07:52:14;100585;;;30.2;34.5
79347;BME280;68815;48.810;44.482;2023-08-17T07:55:16;100579;;;29.9;35.6
79347;BME280;68815;48.810;44.482;2023-08-17T07:58:17;100594;;;29.3;36.4
79347;BME280;68815;48.810;44.482;2023-08-17T08:01:18;100585;;;29.5;35.6
79347;BME280;68815;48.810;44.482;2023-08-17T08:04:20;100581;;;29.8;35.1
79347;BME280;68815;48.810;44.482;2023-08-17T08:07:21;100577;;;29.7;35
79347;BME280;68815;48.810;44.482;2023-08-17T08:10:23;100574;;;29.6;35.3
79347;BME280;68815;48.810;44.482;2023-08-17T08:13:24;100572;;;29.5;35.6
79347;BME280;68815;48.810;44.482;2023-08-17T08:16:26;100573;;;29.3;35.6
79347;BME280;68815;48.810;44.482;2023-08-17T08:19:28;100574;;;29.3;36.4
79347;BME280;68815;48.810;44.482;2023-08-17T08:22:29;100566;;;29;36.2
79347;BME280;68815;48.810;44.482;2023-08-17T08:25:30;100578;;;29;36.2
79347;BME280;68815;48.810;44.482;2023-08-17T08:28:32;100569;;;28.7;37.1
79347;BME280;68815;48.810;44.482;2023-08-17T08:31:49;100567;;;28.7;37.6
79347;BME280;68815;48.810;44.482;2023-08-17T08:34:51;100564;;;29;36.8
79347;BME280;68815;48.810;44.482;2023-08-17T08:37:52;100561;;;28.9;36.6
79347;BME280;68815;48.810;44.482;2023-08-17T08:40:54;100564;;;29.1;36.5
79347;BME280;68815;48.810;44.482;2023-08-17T08:43:55;100556;;;29.1;35.7
79347;BME280;68815;48.810;44.482;2023-08-17T08:46:58;100555;;;28.6;37.3
79347;BME280;68815;48.810;44.482;2023-08-17T08:50:00;100560;;;28.5;38.3
79347;BME280;68815;48.810;44.482;2023-08-17T08:53:13;100556;;;28.8;37.9
79347;BME280;68815;48.810;44.482;2023-08-17T08:56:18;100561;;;29.1;36.8
79347;BME280;68815;48.810;44.482;2023-08-17T08:59:23;100548;;;29.4;37.7
79347;BME280;68815;48.810;44.482;2023-08-17T09:02:25;100554;;;29.6;36.1
79347;BME280;68815;48.810;44.482;2023-08-17T09:05:26;100558;;;29.4;35.9
79347;BME280;68815;48.810;44.482;2023-08-17T09:08:29;100553;;;29;35.9
79347;BME280;68815;48.810;44.482;2023-08-17T09:11:31;100554;;;29.1;36.5
79347;BME280;68815;48.810;44.482;2023-08-17T09:14:33;100554;;;28.7;36.4
79347;BME280;68815;48.810;44.482;2023-08-17T09:17:34;100548;;;28.7;36.7
79347;BME280;68815;48.810;44.482;2023-08-17T09:20:36;100553;;;28.8;36.5
79347;BME280;68815;48.810;44.482;2023-08-17T09:23:39;100548;;;28.9;36.4
79347;BME280;68815;48.810;44.482;2023-08-17T09:26:40;100548;;;29.2;36.8
79347;BME280;68815;48.810;44.482;2023-08-17T09:29:43;100557;;;29.1;35.9
79347;BME280;68815;48.810;44.482;2023-08-17T09:32:47;100548;;;28.8;35.4
79347;BME280;68815;48.810;44.482;2023-08-17T09:35:49;100534;;;28.8;36.1
79347;BME280;68815;48.810;44.482;2023-08-17T09:38:51;100535;;;28.8;37.2
79347;BME280;68815;48.810;44.482;2023-08-17T09:41:54;100537;;;28.7;37.8
79347;BME280;68815;48.810;44.482;2023-08-17T09:44:57;100530;;;29.1;36.7
79347;BME280;68815;48.810;44.482;2023-08-17T09:47:59;100533;;;29.1;36
79347;BME280;68815;48.810;44.482;2023-08-17T09:51:00;100525;;;29.2;36.1
79347;BME280;68815;48.810;44.482;2023-08-17T09:54:02;100531;;;29.1;35.1
79347;BME280;68815;48.810;44.482;2023-08-17T09:57:04;100530;;;29;35.2
79347;BME280;68815;48.810;44.482;2023-08-17T10:00:07;100529;;;28.9;36.1
79347;BME280;68815;48.810;44.482;2023-08-17T10:03:09;100539;;;28.7;36.3
79347;BME280;68815;48.810;44.482;2023-08-17T10:06:12;100535;;;28.5;35.5
79347;BME280;68815;48.810;44.482;2023-08-17T10:09:19;100529;;;28.7;36.2
79347;BME280;68815;48.810;44.482;2023-08-17T10:12:27;100530;;;28.9;35.9
79347;BME280;68815;48.810;44.482;2023-08-17T10:15:30;100528;;;29.2;35.6
79347;BME280;68815;48.810;44.482;2023-08-17T10:18:38;100532;;;29;35.6
79347;BME280;68815;48.810;44.482;2023-08-17T10:21:48;100528;;;28.7;35.5
79347;BME280;68815;48.810;44.482;2023-08-17T10:24:53;100519;;;28.6;35.9
79347;BME280;68815;48.810;44.482;2023-08-17T10:27:55;100518;;;28.8;35.4
79347;BME280;68815;48.810;44.482;2023-08-17T10:30:57;100514;;;28.9;36.1
79347;BME280;68815;48.810;44.482;2023-08-17T10:33:59;100512;;;28.8;35.6
79347;BME280;68815;48.810;44.482;2023-08-17T10:37:01;100511;;;28.7;35.9
79347;BME280;68815;48.810;44.482;2023-08-17T10:40:03;100518;;;28.7;35.8
79347;BME280;68815;48.810;44.482;2023-08-17T10:43:07;100513;;;28.6;36.6
79347;BME280;68815;48.810;44.482;2023-08-17T10:46:16;100507;;;28.8;36.1
79347;BME280;68815;48.810;44.482;2023-08-17T10:49:26;100504;;;29.2;35.3
79347;BME280;68815;48.810;44.482;2023-08-17T10:52:29;100506;;;29.3;34.7
79347;BME280;68815;48.810;44.482;2023-08-17T10:55:36;100505;;;29.1;34.7
79347;BME280;68815;48.810;44.482;2023-08-17T10:58:38;100507;;;28.8;35.5
79347;BME280;68815;48.810;44.482;2023-08-17T11:01:40;100503;;;28.6;35.9
79347;BME280;68815;48.810;44.482;2023-08-17T11:04:50;100502;;;28.5;35.6
79347;BME280;68815;48.810;44.482;2023-08-17T11:07:52;100497;;;28.5;35.5
79347;BME280;68815;48.810;44.482;2023-08-17T11:11:01;100490;;;28.7;35.8
79347;BME280;68815;48.810;44.482;2023-08-17T11:14:03;100495;;;28.8;35.6
79347;BME280;68815;48.810;44.482;2023-08-17T11:17:05;100500;;;28.8;36.4
79347;BME280;68815;48.810;44.482;2023-08-17T11:20:07;100491;;;28.6;36.8
79347;BME280;68815;48.810;44.482;2023-08-17T11:23:10;100497;;;28.5;37.3
79347;BME280;68815;48.810;44.482;2023-08-17T11:26:11;100490;;;28.5;37.4
79347;BME280;68815;48.810;44.482;2023-08-17T11:29:13;100481;;;28.5;36.6
79347;BME280;68815;48.810;44.482;2023-08-17T11:32:16;100479;;;28.4;36.9
79347;BME280;68815;48.810;44.482;2023-08-17T11:35:17;100479;;;28.5;37.3
79347;BME280;68815;48.810;44.482;2023-08-17T11:38:19;100472;;;28.5;36.6
79347;BME280;68815;48.810;44.482;2023-08-17T11:41:21;100469;;;28.5;37.7
79347;BME280;68815;48.810;44.482;2023-08-17T11:44:22;100472;;;28.4;37.1
79347;BME280;68815;48.810;44.482;2023-08-17T11:47:23;100475;;;28.3;38.2
79347;BME280;68815;48.810;44.482;2023-08-17T11:50:25;100469;;;28.3;37.1
79347;BME280;68815;48.810;44.482;2023-08-17T11:53:32;100475;;;28.3;37.3
79347;BME280;68815;48.810;44.482;2023-08-17T11:56:36;100481;;;28.2;37.7
79347;BME280;68815;48.810;44.482;2023-08-17T11:59:38;100472;;;28.1;37.1
79347;BME280;68815;48.810;44.482;2023-08-17T12:02:39;100468;;;28.2;36.5
79347;BME280;68815;48.810;44.482;2023-08-17T12:05:41;100470;;;28.1;37.2
79347;BME280;68815;48.810;44.482;2023-08-17T12:08:43;100471;;;28.2;37.7
79347;BME280;68815;48.810;44.482;2023-08-17T12:11:45;100470;;;28.2;37.8
79347;BME280;68815;48.810;44.482;2023-08-17T12:14:48;100476;;;28;38.1
79347;BME280;68815;48.810;44.482;2023-08-17T12:17:49;100478;;;28;37.8
79347;BME280;68815;48.810;44.482;2023-08-17T12:20:52;100476;;;27.8;38.2
79347;BME280;68815;48.810;44.482;2023-08-17T12:23:53;100473;;;27.9;38.4
79347;BME280;68815;48.810;44.482;2023-08-17T12:26:57;100470;;;28;37.7
79347;BME280;68815;48.810;44.482;2023-08-17T12:29:58;100467;;;28.1;37.5
79347;BME280;68815;48.810;44.482;2023-08-17T12:32:59;100463;;;28.2;37.9
79347;BME280;68815;48.810;44.482;2023-08-17T12:36:01;100466;;;28.2;36.8
79347;BME280;68815;48.810;44.482;2023-08-17T12:39:03;100465;;;28.3;36.8
79347;BME280;68815;48.810;44.482;2023-08-17T12:42:05;100462;;;28.2;37.1
79347;BME280;68815;48.810;44.482;2023-08-17T12:45:06;100459;;;28.3;37.3
79347;BME280;68815;48.810;44.482;2023-08-17T12:48:08;100470;;;28.2;37.2
79347;BME280;68815;48.810;44.482;2023-08-17T12:51:09;100461;;;28.2;36.6
79347;BME280;68815;48.810;44.482;2023-08-17T12:54:11;100462;;;28.1;36.7
79347;BME280;68815;48.810;44.482;2023-08-17T12:57:13;100464;;;28.1;36.9
79347;BME280;68815;48.810;44.482;2023-08-17T13:00:15;100462;;;28.1;36.8
79347;BME280;68815;48.810;44.482;2023-08-17T13:03:17;100461;;;28.1;36.5
79347;BME280;68815;48.810;44.482;2023-08-17T13:06:18;100467;;;28.1;36.2
79347;BME280;68815;48.810;44.482;2023-08-17T13:09:19;100465;;;28;36.3
79347;BME280;68815;48.810;44.482;2023-08-17T13:12:21;100471;;;28;36.7
79347;BME280;68815;48.810;44.482;2023-08-17T13:15:23;100468;;;28;36.9
79347;BME280;68815;48.810;44.482;2023-08-17T13:18:24;100468;;;28.1;36.7
79347;BME280;68815;48.810;44.482;2023-08-17T13:21:26;100460;;;28.1;37.1
79347;BME280;68815;48.810;44.482;2023-08-17T13:24:27;100466;;;28;37.5
79347;BME280;68815;48.810;44.482;2023-08-17T13:27:28;100467;;;28.1;37.4
79347;BME280;68815;48.810;44.482;2023-08-17T13:30:30;100468;;;28.1;36.6
79347;BME280;68815;48.810;44.482;2023-08-17T13:33:31;100457;;;28;37.1
79347;BME280;68815;48.810;44.482;2023-08-17T13:36:33;100466;;;28;37.4
79347;BME280;68815;48.810;44.482;2023-08-17T13:39:34;100466;;;28.1;37.1
79347;BME280;68815;48.810;44.482;2023-08-17T13:42:36;100463;;;28.1;36.9
79347;BME280;68815;48.810;44.482;2023-08-17T13:45:37;100456;;;28.1;36.7
79347;BME280;68815;48.810;44.482;2023-08-17T13:48:39;100454;;;28.2;37.4
79347;BME280;68815;48.810;44.482;2023-08-17T13:51:40;100461;;;28.1;37
79347;BME280;68815;48.810;44.482;2023-08-17T13:54:42;100454;;;28.1;37
79347;BME280;68815;48.810;44.482;2023-08-17T13:57:44;100456;;;28;37.4
79347;BME280;68815;48.810;44.482;2023-08-17T14:00:45;100460;;;27.9;37.5
79347;BME280;68815;48.810;44.482;2023-08-17T14:03:47;100455;;;27.9;37.9
79347;BME280;68815;48.810;44.482;2023-08-17T14:06:48;100449;;;27.8;37.5
79347;BME280;68815;48.810;44.482;2023-08-17T14:09:50;100447;;;27.9;37.3
79347;BME280;68815;48.810;44.482;2023-08-17T14:12:51;100447;;;27.8;37.6
79347;BME280;68815;48.810;44.482;2023-08-17T14:15:53;100449;;;27.8;37.7
79347;BME280;68815;48.810;44.482;2023-08-17T14:18:54;100442;;;27.8;37.8
79347;BME280;68815;48.810;44.482;2023-08-17T14:21:56;100444;;;27.8;37
79347;BME280;68815;48.810;44.482;2023-08-17T14:24:57;100441;;;27.9;37.1
79347;BME280;68815;48.810;44.482;2023-08-17T14:27:58;100436;;;27.9;37.2
79347;BME280;68815;48.810;44.482;2023-08-17T14:31:00;100437;;;27.9;37.6
79347;BME280;68815;48.810;44.482;2023-08-17T14:34:01;100435;;;27.9;37.8
79347;BME280;68815;48.810;44.482;2023-08-17T14:37:03;100438;;;27.9;37.5
79347;BME280;68815;48.810;44.482;2023-08-17T14:40:05;100442;;;27.9;37.2
79347;BME280;68815;48.810;44.482;2023-08-17T14:43:07;100439;;;27.9;36.9
79347;BME280;68815;48.810;44.482;2023-08-17T14:46:09;100440;;;27.8;36.6
79347;BME280;68815;48.810;44.482;2023-08-17T14:49:10;100444;;;27.7;36.5
79347;BME280;68815;48.810;44.482;2023-08-17T14:52:12;100440;;;27.7;36.6
79347;BME280;68815;48.810;44.482;2023-08-17T14:55:13;100437;;;27.7;36.8
79347;BME280;68815;48.810;44.482;2023-08-17T14:58:15;100429;;;27.6;36.8
79347;BME280;68815;48.810;44.482;2023-08-17T15:01:17;100429;;;27.7;36.8
79347;BME280;68815;48.810;44.482;2023-08-17T15:04:18;100436;;;27.6;36.6
79347;BME280;68815;48.810;44.482;2023-08-17T15:07:20;100436;;;27.6;36.9
79347;BME280;68815;48.810;44.482;2023-08-17T15:10:23;100440;;;27.6;36.7
79347;BME280;68815;48.810;44.482;2023-08-17T15:13:24;100439;;;27.6;36.8
79347;BME280;68815;48.810;44.482;2023-08-17T15:16:26;100440;;;27.5;37.2
79347;BME280;68815;48.810;44.482;2023-08-17T15:19:27;100440;;;27.5;36.9
79347;BME280;68815;48.810;44.482;2023-08-17T15:22:29;100440;;;27.5;36.9
79347;BME280;68815;48.810;44.482;2023-08-17T15:25:30;100449;;;27.5;36.5
79347;BME280;68815;48.810;44.482;2023-08-17T15:28:32;100447;;;27.5;36.9
79347;BME280;68815;48.810;44.482;2023-08-17T15:31:33;100450;;;27.5;36.3
79347;BME280;68815;48.810;44.482;2023-08-17T15:34:34;100454;;;27.5;36.8
79347;BME280;68815;48.810;44.482;2023-08-17T15:37:36;100458;;;27.5;36.8
79347;BME280;68815;48.810;44.482;2023-08-17T15:40:37;100457;;;27.4;37.1
79347;BME280;68815;48.810;44.482;2023-08-17T15:43:39;100454;;;27.4;37.4
79347;BME280;68815;48.810;44.482;2023-08-17T15:46:40;100452;;;27.3;37.8
79347;BME280;68815;48.810;44.482;2023-08-17T15:49:42;100465;;;27.2;37.6
79347;BME280;68815;48.810;44.482;2023-08-17T15:52:43;100465;;;27.2;37.8
79347;BME280;68815;48.810;44.482;2023-08-17T15:55:44;100460;;;27.1;38
79347;BME280;68815;48.810;44.482;2023-08-17T15:58:46;100463;;;27.1;37.6
79347;BME280;68815;48.810;44.482;2023-08-17T16:01:48;100469;;;27.1;37.9
79347;BME280;68815;48.810;44.482;2023-08-17T16:04:49;100466;;;27;37.9
79347;BME280;68815;48.810;44.482;2023-08-17T16:07:51;100466;;;27;37.8
79347;BME280;68815;48.810;44.482;2023-08-17T16:10:52;100467;;;26.9;38.1
79347;BME280;68815;48.810;44.482;2023-08-17T16:13:54;100470;;;26.9;38.5
79347;BME280;68815;48.810;44.482;2023-08-17T16:16:55;100476;;;26.9;38.3
79347;BME280;68815;48.810;44.482;2023-08-17T16:19:56;100487;;;26.9;38.2
79347;BME280;68815;48.810;44.482;2023-08-17T16:22:58;100490;;;27;38.1
79347;BME280;68815;48.810;44.482;2023-08-17T16:25:59;100492;;;26.9;38.6
79347;BME280;68815;48.810;44.482;2023-08-17T16:29:01;100495;;;26.8;39.4
79347;BME280;68815;48.810;44.482;2023-08-17T16:32:03;100496;;;26.8;38.7
79347;BME280;68815;48.810;44.482;2023-08-17T16:35:05;100501;;;26.8;38.9
79347;BME280;68815;48.810;44.482;2023-08-17T16:38:06;100499;;;26.8;39.3
79347;BME280;68815;48.810;44.482;2023-08-17T16:41:08;100505;;;26.7;39.2
79347;BME280;68815;48.810;44.482;2023-08-17T16:44:09;100513;;;26.7;40.1
79347;BME280;68815;48.810;44.482;2023-08-17T16:47:11;100523;;;26.4;41.1
79347;BME280;68815;48.810;44.482;2023-08-17T16:50:12;100523;;;26.4;40.9
79347;BME280;68815;48.810;44.482;2023-08-17T16:53:13;100523;;;26.3;41.5
79347;BME280;68815;48.810;44.482;2023-08-17T16:56:15;100520;;;26.2;41.7
79347;BME280;68815;48.810;44.482;2023-08-17T16:59:16;100524;;;26.2;41.5
79347;BME280;68815;48.810;44.482;2023-08-17T17:02:19;100525;;;26.1;41.9
79347;BME280;68815;48.810;44.482;2023-08-17T17:05:20;100514;;;26;41.7
79347;BME280;68815;48.810;44.482;2023-08-17T17:08:22;100519;;;26.1;41.8
79347;BME280;68815;48.810;44.482;2023-08-17T17:11:23;100521;;;26;42
79347;BME280;68815;48.810;44.482;2023-08-17T17:14:25;100522;;;26;42
79347;BME280;68815;48.810;44.482;2023-08-17T17:17:28;100521;;;25.9;42.6
79347;BME280;68815;48.810;44.482;2023-08-17T17:20:29;100514;;;25.9;42.2
79347;BME280;68815;48.810;44.482;2023-08-17T17:23:31;100514;;;25.7;42.7
79347;BME280;68815;48.810;44.482;2023-08-17T17:26:32;100525;;;25.5;43.9
79347;BME280;68815;48.810;44.482;2023-08-17T17:29:34;100520;;;25.4;44.7
79347;BME280;68815;48.810;44.482;2023-08-17T17:32:35;100517;;;25.4;44.7
79347;BME280;68815;48.810;44.482;2023-08-17T17:35:36;100513;;;25.5;44.3
79347;BME280;68815;48.810;44.482;2023-08-17T17:38:38;100511;;;25.4;44.7
79347;BME280;68815;48.810;44.482;2023-08-17T17:41:39;100514;;;25.3;45.2
79347;BME280;68815;48.810;44.482;2023-08-17T17:44:41;100510;;;25.1;45.6
79347;BME280;68815;48.810;44.482;2023-08-17T17:47:42;100508;;;25.1;45
79347;BME280;68815;48.810;44.482;2023-08-17T17:50:44;100508;;;25.1;45.4
79347;BME280;68815;48.810;44.482;2023-08-17T17:53:46;100505;;;25.1;44.8
79347;BME280;68815;48.810;44.482;2023-08-17T17:56:47;100502;;;25.2;44.2
79347;BME280;68815;48.810;44.482;2023-08-17T17:59:49;100505;;;25.1;44.3
79347;BME280;68815;48.810;44.482;2023-08-17T18:02:50;100502;;;25;44.4
79347;BME280;68815;48.810;44.482;2023-08-17T18:05:52;100498;;;25;44.5
79347;BME280;68815;48.810;44.482;2023-08-17T18:08:54;100497;;;24.8;44.7
79347;BME280;68815;48.810;44.482;2023-08-17T18:11:55;100509;;;24.8;44.7
79347;BME280;68815;48.810;44.482;2023-08-17T18:14:57;100500;;;24.8;44.4
79347;BME280;68815;48.810;44.482;2023-08-17T18:17:58;100501;;;24.7;44.6
79347;BME280;68815;48.810;44.482;2023-08-17T18:21:00;100501;;;24.7;44.8
79347;BME280;68815;48.810;44.482;2023-08-17T18:24:01;100498;;;24.7;44.3
79347;BME280;68815;48.810;44.482;2023-08-17T18:27:03;100504;;;24.8;44.2
79347;BME280;68815;48.810;44.482;2023-08-17T18:30:05;100500;;;24.8;44.4
79347;BME280;68815;48.810;44.482;2023-08-17T18:33:07;100504;;;24.7;44.7